sensor_id;sensor_type;location;lat;lon;timestamp;P1;durP1;ratioP1;P2;durP2;ratioP2
21601;SDS011;10963;50.934;4.668;2023-06-10T00:01:59;13.93;;;11.10;;
21601;SDS011;10963;50.934;4.668;2023-06-10T00:04:28;13.90;;;10.67;;
21601;SDS011;10963;50.934;4.668;2023-06-10T00:06:54;11.73;;;10.27;;
21601;SDS011;10963;50.934;4.668;2023-06-10T00:09:22;11.57;;;10.37;;
21601;SDS011;10963;50.934;4.668;2023-06-10T00:11:50;12.83;;;10.27;;
21601;SDS011;10963;50.934;4.668;2023-06-10T00:14:19;14.87;;;10.83;;
21601;SDS011;10963;50.934;4.668;2023-06-10T00:16:44;14.90;;;11.30;;
21601;SDS011;10963;50.934;4.668;2023-06-10T00:19:10;11.73;;;10.50;;
21601;SDS011;10963;50.934;4.668;2023-06-10T00:21:39;13.57;;;10.13;;
21601;SDS011;10963;50.934;4.668;2023-06-10T00:24:05;14.13;;;10.53;;
21601;SDS011;10963;50.934;4.668;2023-06-10T00:26:34;15.87;;;10.40;;
21601;SDS011;10963;50.934;4.668;2023-06-10T00:29:00;11.43;;;10.13;;
21601;SDS011;10963;50.934;4.668;2023-06-10T00:31:26;15.30;;;11.37;;
21601;SDS011;10963;50.934;4.668;2023-06-10T00:33:54;12.67;;;10.10;;
21601;SDS011;10963;50.934;4.668;2023-06-10T00:36:20;13.37;;;11.00;;
21601;SDS011;10963;50.934;4.668;2023-06-10T00:38:48;13.50;;;10.13;;
21601;SDS011;10963;50.934;4.668;2023-06-10T00:41:16;13.27;;;11.10;;
21601;SDS011;10963;50.934;4.668;2023-06-10T00:43:42;14.53;;;10.83;;
21601;SDS011;10963;50.934;4.668;2023-06-10T00:46:10;13.70;;;10.57;;
21601;SDS011;10963;50.934;4.668;2023-06-10T00:48:40;15.13;;;10.20;;
21601;SDS011;10963;50.934;4.668;2023-06-10T00:51:12;15.03;;;11.07;;
21601;SDS011;10963;50.934;4.668;2023-06-10T00:53:41;13.70;;;10.93;;
21601;SDS011;10963;50.934;4.668;2023-06-10T00:56:09;12.47;;;11.27;;
21601;SDS011;10963;50.934;4.668;2023-06-10T00:58:35;12.93;;;10.87;;
21601;SDS011;10963;50.934;4.668;2023-06-10T01:01:01;13.80;;;10.90;;
21601;SDS011;10963;50.934;4.668;2023-06-10T01:03:29;15.90;;;11.33;;
21601;SDS011;10963;50.934;4.668;2023-06-10T01:05:58;15.73;;;11.00;;
21601;SDS011;10963;50.934;4.668;2023-06-10T01:08:39;14.03;;;11.80;;
21601;SDS011;10963;50.934;4.668;2023-06-10T01:11:17;15.57;;;11.73;;
21601;SDS011;10963;50.934;4.668;2023-06-10T01:13:46;13.23;;;11.00;;
21601;SDS011;10963;50.934;4.668;2023-06-10T01:16:19;13.30;;;11.43;;
21601;SDS011;10963;50.934;4.668;2023-06-10T01:18:48;12.87;;;10.83;;
21601;SDS011;10963;50.934;4.668;2023-06-10T01:21:20;14.90;;;11.50;;
21601;SDS011;10963;50.934;4.668;2023-06-10T01:23:49;13.33;;;11.20;;
21601;SDS011;10963;50.934;4.668;2023-06-10T01:26:24;16.77;;;11.43;;
21601;SDS011;10963;50.934;4.668;2023-06-10T01:28:58;12.80;;;11.10;;
21601;SDS011;10963;50.934;4.668;2023-06-10T01:31:49;13.63;;;10.90;;
21601;SDS011;10963;50.934;4.668;2023-06-10T01:34:23;15.20;;;11.13;;
21601;SDS011;10963;50.934;4.668;2023-06-10T01:36:51;15.83;;;11.83;;
21601;SDS011;10963;50.934;4.668;2023-06-10T01:39:20;12.70;;;11.27;;
21601;SDS011;10963;50.934;4.668;2023-06-10T01:41:52;16.23;;;11.93;;
21601;SDS011;10963;50.934;4.668;2023-06-10T01:44:20;15.27;;;11.37;;
21601;SDS011;10963;50.934;4.668;2023-06-10T01:46:46;16.63;;;11.57;;
21601;SDS011;10963;50.934;4.668;2023-06-10T01:49:12;13.67;;;11.80;;
21601;SDS011;10963;50.934;4.668;2023-06-10T01:51:38;16.10;;;11.87;;
21601;SDS011;10963;50.934;4.668;2023-06-10T01:54:04;17.03;;;12.60;;
21601;SDS011;10963;50.934;4.668;2023-06-10T01:56:32;15.30;;;11.87;;
21601;SDS011;10963;50.934;4.668;2023-06-10T01:58:58;13.87;;;12.43;;
21601;SDS011;10963;50.934;4.668;2023-06-10T02:01:25;18.20;;;13.83;;
21601;SDS011;10963;50.934;4.668;2023-06-10T02:03:51;13.33;;;11.93;;
21601;SDS011;10963;50.934;4.668;2023-06-10T02:06:17;14.73;;;12.33;;
21601;SDS011;10963;50.934;4.668;2023-06-10T02:08:45;15.43;;;12.03;;
21601;SDS011;10963;50.934;4.668;2023-06-10T02:11:11;14.83;;;11.80;;
21601;SDS011;10963;50.934;4.668;2023-06-10T02:13:37;14.07;;;12.57;;
21601;SDS011;10963;50.934;4.668;2023-06-10T02:16:08;15.23;;;12.83;;
21601;SDS011;10963;50.934;4.668;2023-06-10T02:18:38;16.60;;;13.47;;
21601;SDS011;10963;50.934;4.668;2023-06-10T02:21:05;15.73;;;13.03;;
21601;SDS011;10963;50.934;4.668;2023-06-10T02:23:32;18.57;;;13.03;;
21601;SDS011;10963;50.934;4.668;2023-06-10T02:26:02;17.80;;;12.60;;
21601;SDS011;10963;50.934;4.668;2023-06-10T02:28:30;14.60;;;12.60;;
21601;SDS011;10963;50.934;4.668;2023-06-10T02:30:59;16.70;;;12.60;;
21601;SDS011;10963;50.934;4.668;2023-06-10T02:33:27;18.17;;;14.03;;
21601;SDS011;10963;50.934;4.668;2023-06-10T02:35:53;17.77;;;13.07;;
21601;SDS011;10963;50.934;4.668;2023-06-10T02:38:20;14.43;;;12.17;;
21601;SDS011;10963;50.934;4.668;2023-06-10T02:40:46;14.37;;;11.83;;
21601;SDS011;10963;50.934;4.668;2023-06-10T02:43:12;15.57;;;13.10;;
21601;SDS011;10963;50.934;4.668;2023-06-10T02:45:38;15.00;;;12.00;;
21601;SDS011;10963;50.934;4.668;2023-06-10T02:48:06;16.00;;;13.20;;
21601;SDS011;10963;50.934;4.668;2023-06-10T02:50:32;14.73;;;13.17;;
21601;SDS011;10963;50.934;4.668;2023-06-10T02:52:57;14.47;;;12.30;;
21601;SDS011;10963;50.934;4.668;2023-06-10T02:55:23;15.13;;;13.20;;
21601;SDS011;10963;50.934;4.668;2023-06-10T02:57:51;17.73;;;12.73;;
21601;SDS011;10963;50.934;4.668;2023-06-10T03:00:19;17.50;;;13.03;;
21601;SDS011;10963;50.934;4.668;2023-06-10T03:02:48;16.43;;;13.13;;
21601;SDS011;10963;50.934;4.668;2023-06-10T03:05:14;15.53;;;12.67;;
21601;SDS011;10963;50.934;4.668;2023-06-10T03:07:44;14.93;;;12.43;;
21601;SDS011;10963;50.934;4.668;2023-06-10T03:10:11;17.13;;;13.17;;
21601;SDS011;10963;50.934;4.668;2023-06-10T03:12:40;15.87;;;13.67;;
21601;SDS011;10963;50.934;4.668;2023-06-10T03:15:08;18.63;;;13.90;;
21601;SDS011;10963;50.934;4.668;2023-06-10T03:17:34;16.23;;;12.87;;
21601;SDS011;10963;50.934;4.668;2023-06-10T03:20:00;16.37;;;13.13;;
21601;SDS011;10963;50.934;4.668;2023-06-10T03:22:30;14.43;;;12.73;;
21601;SDS011;10963;50.934;4.668;2023-06-10T03:24:59;15.67;;;12.47;;
21601;SDS011;10963;50.934;4.668;2023-06-10T03:27:24;18.47;;;12.47;;
21601;SDS011;10963;50.934;4.668;2023-06-10T03:29:50;17.40;;;13.57;;
21601;SDS011;10963;50.934;4.668;2023-06-10T03:32:18;14.60;;;12.83;;
21601;SDS011;10963;50.934;4.668;2023-06-10T03:34:44;16.17;;;12.60;;
21601;SDS011;10963;50.934;4.668;2023-06-10T03:37:10;20.73;;;14.43;;
21601;SDS011;10963;50.934;4.668;2023-06-10T03:39:35;17.97;;;13.03;;
21601;SDS011;10963;50.934;4.668;2023-06-10T03:42:06;16.13;;;13.80;;
21601;SDS011;10963;50.934;4.668;2023-06-10T03:44:32;16.27;;;13.60;;
21601;SDS011;10963;50.934;4.668;2023-06-10T03:46:58;21.10;;;14.23;;
21601;SDS011;10963;50.934;4.668;2023-06-10T03:49:24;18.37;;;14.27;;
21601;SDS011;10963;50.934;4.668;2023-06-10T03:51:51;15.77;;;13.13;;
21601;SDS011;10963;50.934;4.668;2023-06-10T03:54:17;16.57;;;13.40;;
21601;SDS011;10963;50.934;4.668;2023-06-10T03:56:45;16.57;;;13.17;;
21601;SDS011;10963;50.934;4.668;2023-06-10T03:59:13;18.50;;;13.93;;
21601;SDS011;10963;50.934;4.668;2023-06-10T04:01:41;19.60;;;14.17;;
21601;SDS011;10963;50.934;4.668;2023-06-10T04:04:09;19.10;;;13.13;;
21601;SDS011;10963;50.934;4.668;2023-06-10T04:06:39;21.13;;;13.97;;
21601;SDS011;10963;50.934;4.668;2023-06-10T04:09:06;16.40;;;14.30;;
21601;SDS011;10963;50.934;4.668;2023-06-10T04:11:42;17.20;;;13.40;;
21601;SDS011;10963;50.934;4.668;2023-06-10T04:14:07;17.03;;;13.63;;
21601;SDS011;10963;50.934;4.668;2023-06-10T04:16:36;19.43;;;13.87;;
21601;SDS011;10963;50.934;4.668;2023-06-10T04:19:03;16.03;;;13.93;;
21601;SDS011;10963;50.934;4.668;2023-06-10T04:21:29;16.63;;;13.40;;
21601;SDS011;10963;50.934;4.668;2023-06-10T04:24:01;16.77;;;13.67;;
21601;SDS011;10963;50.934;4.668;2023-06-10T04:26:27;17.53;;;13.33;;
21601;SDS011;10963;50.934;4.668;2023-06-10T04:28:52;16.67;;;14.13;;
21601;SDS011;10963;50.934;4.668;2023-06-10T04:31:20;17.77;;;12.33;;
21601;SDS011;10963;50.934;4.668;2023-06-10T04:33:48;17.70;;;13.43;;
21601;SDS011;10963;50.934;4.668;2023-06-10T04:36:14;18.23;;;13.00;;
21601;SDS011;10963;50.934;4.668;2023-06-10T04:38:44;18.07;;;13.47;;
21601;SDS011;10963;50.934;4.668;2023-06-10T04:41:10;19.53;;;14.20;;
21601;SDS011;10963;50.934;4.668;2023-06-10T04:43:36;15.07;;;13.47;;
21601;SDS011;10963;50.934;4.668;2023-06-10T04:46:02;14.60;;;12.90;;
21601;SDS011;10963;50.934;4.668;2023-06-10T04:48:32;16.67;;;13.10;;
21601;SDS011;10963;50.934;4.668;2023-06-10T04:51:03;16.73;;;13.50;;
21601;SDS011;10963;50.934;4.668;2023-06-10T04:53:30;16.57;;;13.03;;
21601;SDS011;10963;50.934;4.668;2023-06-10T04:55:56;16.27;;;13.27;;
21601;SDS011;10963;50.934;4.668;2023-06-10T04:58:25;18.53;;;13.63;;
21601;SDS011;10963;50.934;4.668;2023-06-10T05:00:52;16.13;;;13.60;;
21601;SDS011;10963;50.934;4.668;2023-06-10T05:03:21;14.70;;;13.10;;
21601;SDS011;10963;50.934;4.668;2023-06-10T05:05:46;18.08;;;13.27;;
21601;SDS011;10963;50.934;4.668;2023-06-10T05:08:12;13.88;;;12.48;;
21601;SDS011;10963;50.934;4.668;2023-06-10T05:10:42;16.43;;;13.47;;
21601;SDS011;10963;50.934;4.668;2023-06-10T05:13:08;14.25;;;12.75;;
21601;SDS011;10963;50.934;4.668;2023-06-10T05:15:33;16.15;;;13.07;;
21601;SDS011;10963;50.934;4.668;2023-06-10T05:17:59;16.63;;;13.85;;
21601;SDS011;10963;50.934;4.668;2023-06-10T05:20:27;17.30;;;13.48;;
21601;SDS011;10963;50.934;4.668;2023-06-10T05:22:53;14.80;;;12.73;;
21601;SDS011;10963;50.934;4.668;2023-06-10T05:25:19;16.15;;;12.95;;
21601;SDS011;10963;50.934;4.668;2023-06-10T05:27:47;21.13;;;13.32;;
21601;SDS011;10963;50.934;4.668;2023-06-10T05:30:15;16.33;;;14.40;;
21601;SDS011;10963;50.934;4.668;2023-06-10T05:32:44;18.17;;;13.80;;
21601;SDS011;10963;50.934;4.668;2023-06-10T05:35:09;14.15;;;12.63;;
21601;SDS011;10963;50.934;4.668;2023-06-10T05:37:37;19.30;;;14.07;;
21601;SDS011;10963;50.934;4.668;2023-06-10T05:40:03;15.90;;;13.90;;
21601;SDS011;10963;50.934;4.668;2023-06-10T05:42:29;17.20;;;13.23;;
21601;SDS011;10963;50.934;4.668;2023-06-10T05:44:55;19.25;;;13.25;;
21601;SDS011;10963;50.934;4.668;2023-06-10T05:47:21;17.17;;;13.48;;
21601;SDS011;10963;50.934;4.668;2023-06-10T05:49:46;16.45;;;13.32;;
21601;SDS011;10963;50.934;4.668;2023-06-10T05:52:16;14.93;;;12.90;;
21601;SDS011;10963;50.934;4.668;2023-06-10T05:54:45;14.95;;;12.82;;
21601;SDS011;10963;50.934;4.668;2023-06-10T05:57:10;15.85;;;13.00;;
21601;SDS011;10963;50.934;4.668;2023-06-10T05:59:36;14.98;;;12.55;;
21601;SDS011;10963;50.934;4.668;2023-06-10T06:02:02;15.18;;;13.45;;
21601;SDS011;10963;50.934;4.668;2023-06-10T06:04:30;15.93;;;13.40;;
21601;SDS011;10963;50.934;4.668;2023-06-10T06:06:57;14.98;;;13.38;;
21601;SDS011;10963;50.934;4.668;2023-06-10T06:09:22;15.98;;;13.25;;
21601;SDS011;10963;50.934;4.668;2023-06-10T06:11:53;14.20;;;12.73;;
21601;SDS011;10963;50.934;4.668;2023-06-10T06:14:20;16.05;;;13.15;;
21601;SDS011;10963;50.934;4.668;2023-06-10T06:16:48;16.70;;;13.23;;
21601;SDS011;10963;50.934;4.668;2023-06-10T06:19:16;15.18;;;13.32;;
21601;SDS011;10963;50.934;4.668;2023-06-10T06:21:42;16.30;;;12.57;;
21601;SDS011;10963;50.934;4.668;2023-06-10T06:24:15;15.65;;;12.20;;
21601;SDS011;10963;50.934;4.668;2023-06-10T06:26:41;13.65;;;12.20;;
21601;SDS011;10963;50.934;4.668;2023-06-10T06:29:07;12.95;;;11.65;;
21601;SDS011;10963;50.934;4.668;2023-06-10T06:31:32;15.60;;;12.48;;
21601;SDS011;10963;50.934;4.668;2023-06-10T06:33:58;13.73;;;12.27;;
21601;SDS011;10963;50.934;4.668;2023-06-10T06:36:24;13.90;;;11.55;;
21601;SDS011;10963;50.934;4.668;2023-06-10T06:38:49;13.85;;;12.50;;
21601;SDS011;10963;50.934;4.668;2023-06-10T06:41:17;14.15;;;11.63;;
21601;SDS011;10963;50.934;4.668;2023-06-10T06:43:43;14.13;;;12.65;;
21601;SDS011;10963;50.934;4.668;2023-06-10T06:46:09;16.25;;;12.27;;
21601;SDS011;10963;50.934;4.668;2023-06-10T06:48:37;14.57;;;11.93;;
21601;SDS011;10963;50.934;4.668;2023-06-10T06:51:02;13.88;;;12.27;;
21601;SDS011;10963;50.934;4.668;2023-06-10T06:53:28;14.60;;;12.43;;
21601;SDS011;10963;50.934;4.668;2023-06-10T06:55:56;13.85;;;12.27;;
21601;SDS011;10963;50.934;4.668;2023-06-10T06:58:21;15.05;;;12.55;;
21601;SDS011;10963;50.934;4.668;2023-06-10T07:00:47;15.80;;;11.95;;
21601;SDS011;10963;50.934;4.668;2023-06-10T07:03:15;13.75;;;12.35;;
21601;SDS011;10963;50.934;4.668;2023-06-10T07:05:41;14.68;;;11.93;;
21601;SDS011;10963;50.934;4.668;2023-06-10T07:08:09;13.85;;;12.35;;
21601;SDS011;10963;50.934;4.668;2023-06-10T07:10:37;12.65;;;11.35;;
21601;SDS011;10963;50.934;4.668;2023-06-10T07:13:08;13.07;;;11.68;;
21601;SDS011;10963;50.934;4.668;2023-06-10T07:15:35;13.82;;;11.48;;
21601;SDS011;10963;50.934;4.668;2023-06-10T07:18:01;12.25;;;10.98;;
21601;SDS011;10963;50.934;4.668;2023-06-10T07:20:29;12.98;;;11.70;;
21601;SDS011;10963;50.934;4.668;2023-06-10T07:22:57;15.02;;;12.75;;
21601;SDS011;10963;50.934;4.668;2023-06-10T07:25:22;18.23;;;11.02;;
21601;SDS011;10963;50.934;4.668;2023-06-10T07:27:53;14.85;;;12.52;;
21601;SDS011;10963;50.934;4.668;2023-06-10T07:30:21;13.32;;;12.02;;
21601;SDS011;10963;50.934;4.668;2023-06-10T07:32:46;12.95;;;11.68;;
21601;SDS011;10963;50.934;4.668;2023-06-10T07:35:13;12.32;;;11.13;;
21601;SDS011;10963;50.934;4.668;2023-06-10T07:37:41;13.35;;;11.70;;
21601;SDS011;10963;50.934;4.668;2023-06-10T07:40:07;12.10;;;10.90;;
21601;SDS011;10963;50.934;4.668;2023-06-10T07:42:37;13.38;;;11.52;;
21601;SDS011;10963;50.934;4.668;2023-06-10T07:45:08;11.85;;;10.75;;
21601;SDS011;10963;50.934;4.668;2023-06-10T07:47:36;13.30;;;11.05;;
21601;SDS011;10963;50.934;4.668;2023-06-10T07:50:04;11.48;;;10.35;;
21601;SDS011;10963;50.934;4.668;2023-06-10T07:52:32;12.25;;;10.95;;
21601;SDS011;10963;50.934;4.668;2023-06-10T07:55:00;13.05;;;11.30;;
21601;SDS011;10963;50.934;4.668;2023-06-10T07:57:29;12.40;;;11.00;;
21601;SDS011;10963;50.934;4.668;2023-06-10T07:59:59;12.00;;;10.77;;
21601;SDS011;10963;50.934;4.668;2023-06-10T08:02:30;10.93;;;9.95;;
21601;SDS011;10963;50.934;4.668;2023-06-10T08:04:58;12.95;;;10.82;;
21601;SDS011;10963;50.934;4.668;2023-06-10T08:07:23;11.90;;;10.80;;
21601;SDS011;10963;50.934;4.668;2023-06-10T08:09:50;12.48;;;11.15;;
21601;SDS011;10963;50.934;4.668;2023-06-10T08:12:16;10.75;;;9.65;;
21601;SDS011;10963;50.934;4.668;2023-06-10T08:14:42;11.60;;;9.82;;
21601;SDS011;10963;50.934;4.668;2023-06-10T08:17:10;11.07;;;10.05;;
21601;SDS011;10963;50.934;4.668;2023-06-10T08:19:36;11.65;;;10.02;;
21601;SDS011;10963;50.934;4.668;2023-06-10T08:22:06;11.27;;;9.77;;
21601;SDS011;10963;50.934;4.668;2023-06-10T08:24:35;11.20;;;10.10;;
21601;SDS011;10963;50.934;4.668;2023-06-10T08:27:00;17.30;;;10.27;;
21601;SDS011;10963;50.934;4.668;2023-06-10T08:29:31;11.38;;;10.32;;
21601;SDS011;10963;50.934;4.668;2023-06-10T08:31:59;14.35;;;10.07;;
21601;SDS011;10963;50.934;4.668;2023-06-10T08:34:28;10.32;;;9.32;;
21601;SDS011;10963;50.934;4.668;2023-06-10T08:36:53;10.02;;;8.90;;
21601;SDS011;10963;50.934;4.668;2023-06-10T08:39:21;12.77;;;9.30;;
21601;SDS011;10963;50.934;4.668;2023-06-10T08:41:51;14.95;;;8.82;;
21601;SDS011;10963;50.934;4.668;2023-06-10T08:44:28;10.30;;;9.40;;
21601;SDS011;10963;50.934;4.668;2023-06-10T08:46:58;10.45;;;9.55;;
21601;SDS011;10963;50.934;4.668;2023-06-10T08:49:29;10.20;;;9.18;;
21601;SDS011;10963;50.934;4.668;2023-06-10T08:52:00;10.38;;;8.68;;
21601;SDS011;10963;50.934;4.668;2023-06-10T08:54:28;9.52;;;8.48;;
21601;SDS011;10963;50.934;4.668;2023-06-10T08:57:05;9.63;;;8.65;;
21601;SDS011;10963;50.934;4.668;2023-06-10T08:59:31;9.68;;;8.68;;
21601;SDS011;10963;50.934;4.668;2023-06-10T09:01:57;9.10;;;8.30;;
21601;SDS011;10963;50.934;4.668;2023-06-10T09:04:24;10.40;;;9.35;;
21601;SDS011;10963;50.934;4.668;2023-06-10T09:06:52;9.52;;;8.63;;
21601;SDS011;10963;50.934;4.668;2023-06-10T09:09:23;9.43;;;8.57;;
21601;SDS011;10963;50.934;4.668;2023-06-10T09:11:51;12.43;;;8.43;;
21601;SDS011;10963;50.934;4.668;2023-06-10T09:14:16;9.88;;;8.88;;
21601;SDS011;10963;50.934;4.668;2023-06-10T09:16:42;10.70;;;9.10;;
21601;SDS011;10963;50.934;4.668;2023-06-10T09:19:08;9.38;;;8.48;;
21601;SDS011;10963;50.934;4.668;2023-06-10T09:21:38;10.15;;;8.75;;
21601;SDS011;10963;50.934;4.668;2023-06-10T09:24:04;10.25;;;9.25;;
21601;SDS011;10963;50.934;4.668;2023-06-10T09:26:33;10.07;;;9.13;;
21601;SDS011;10963;50.934;4.668;2023-06-10T09:29:07;13.43;;;9.20;;
21601;SDS011;10963;50.934;4.668;2023-06-10T09:31:34;10.30;;;9.35;;
21601;SDS011;10963;50.934;4.668;2023-06-10T09:34:11;10.48;;;9.23;;
21601;SDS011;10963;50.934;4.668;2023-06-10T09:36:38;10.75;;;9.75;;
21601;SDS011;10963;50.934;4.668;2023-06-10T09:39:04;10.68;;;9.68;;
21601;SDS011;10963;50.934;4.668;2023-06-10T09:41:42;10.35;;;9.45;;
21601;SDS011;10963;50.934;4.668;2023-06-10T09:44:15;11.70;;;10.48;;
21601;SDS011;10963;50.934;4.668;2023-06-10T09:46:45;10.80;;;9.68;;
21601;SDS011;10963;50.934;4.668;2023-06-10T09:49:14;10.77;;;9.70;;
21601;SDS011;10963;50.934;4.668;2023-06-10T09:51:50;10.70;;;9.60;;
21601;SDS011;10963;50.934;4.668;2023-06-10T09:54:17;11.20;;;9.85;;
21601;SDS011;10963;50.934;4.668;2023-06-10T09:56:43;10.25;;;9.35;;
21601;SDS011;10963;50.934;4.668;2023-06-10T09:59:16;11.25;;;9.85;;
21601;SDS011;10963;50.934;4.668;2023-06-10T10:01:55;10.40;;;9.35;;
21601;SDS011;10963;50.934;4.668;2023-06-10T10:04:24;10.35;;;9.45;;
21601;SDS011;10963;50.934;4.668;2023-06-10T10:06:50;11.32;;;10.23;;
21601;SDS011;10963;50.934;4.668;2023-06-10T10:09:18;11.30;;;9.32;;
21601;SDS011;10963;50.934;4.668;2023-06-10T10:11:44;11.57;;;9.40;;
21601;SDS011;10963;50.934;4.668;2023-06-10T10:14:12;11.52;;;9.32;;
21601;SDS011;10963;50.934;4.668;2023-06-10T10:16:44;9.85;;;8.93;;
21601;SDS011;10963;50.934;4.668;2023-06-10T10:19:14;11.00;;;9.43;;
21601;SDS011;10963;50.934;4.668;2023-06-10T10:21:48;10.52;;;9.57;;
21601;SDS011;10963;50.934;4.668;2023-06-10T10:24:18;10.65;;;9.65;;
21601;SDS011;10963;50.934;4.668;2023-06-10T10:26:46;10.90;;;9.73;;
21601;SDS011;10963;50.934;4.668;2023-06-10T10:29:16;10.68;;;9.60;;
21601;SDS011;10963;50.934;4.668;2023-06-10T10:31:43;10.38;;;9.05;;
21601;SDS011;10963;50.934;4.668;2023-06-10T10:34:13;13.38;;;8.98;;
21601;SDS011;10963;50.934;4.668;2023-06-10T10:36:42;11.10;;;9.20;;
21601;SDS011;10963;50.934;4.668;2023-06-10T10:39:08;10.23;;;9.13;;
21601;SDS011;10963;50.934;4.668;2023-06-10T10:41:34;10.57;;;9.43;;
21601;SDS011;10963;50.934;4.668;2023-06-10T10:44:03;10.50;;;9.50;;
21601;SDS011;10963;50.934;4.668;2023-06-10T10:46:41;11.77;;;9.32;;
21601;SDS011;10963;50.934;4.668;2023-06-10T10:49:10;10.48;;;9.30;;
21601;SDS011;10963;50.934;4.668;2023-06-10T10:51:44;12.65;;;9.85;;
21601;SDS011;10963;50.934;4.668;2023-06-10T10:54:23;10.40;;;9.30;;
21601;SDS011;10963;50.934;4.668;2023-06-10T11:02:40;11.52;;;9.07;;
21601;SDS011;10963;50.934;4.668;2023-06-10T11:05:17;9.93;;;9.05;;
21601;SDS011;10963;50.934;4.668;2023-06-10T11:07:54;11.18;;;8.23;;
21601;SDS011;10963;50.934;4.668;2023-06-10T11:10:33;9.63;;;8.73;;
21601;SDS011;10963;50.934;4.668;2023-06-10T11:15:33;10.02;;;8.77;;
21601;SDS011;10963;50.934;4.668;2023-06-10T11:18:08;11.23;;;9.57;;
21601;SDS011;10963;50.934;4.668;2023-06-10T11:20:41;10.68;;;9.57;;
21601;SDS011;10963;50.934;4.668;2023-06-10T11:23:10;10.75;;;9.65;;
21601;SDS011;10963;50.934;4.668;2023-06-10T11:25:39;9.98;;;9.10;;
21601;SDS011;10963;50.934;4.668;2023-06-10T11:28:18;9.80;;;8.95;;
21601;SDS011;10963;50.934;4.668;2023-06-10T11:30:45;10.40;;;9.50;;
21601;SDS011;10963;50.934;4.668;2023-06-10T11:33:17;14.10;;;9.55;;
21601;SDS011;10963;50.934;4.668;2023-06-10T11:35:43;12.23;;;8.90;;
21601;SDS011;10963;50.934;4.668;2023-06-10T11:38:09;10.27;;;9.18;;
21601;SDS011;10963;50.934;4.668;2023-06-10T11:40:36;10.77;;;9.60;;
21601;SDS011;10963;50.934;4.668;2023-06-10T11:43:03;10.70;;;9.60;;
21601;SDS011;10963;50.934;4.668;2023-06-10T11:45:30;10.52;;;9.30;;
21601;SDS011;10963;50.934;4.668;2023-06-10T11:47:59;9.77;;;8.85;;
21601;SDS011;10963;50.934;4.668;2023-06-10T11:50:31;15.80;;;9.07;;
21601;SDS011;10963;50.934;4.668;2023-06-10T11:52:58;12.50;;;9.70;;
21601;SDS011;10963;50.934;4.668;2023-06-10T11:55:46;10.82;;;9.82;;
21601;SDS011;10963;50.934;4.668;2023-06-10T11:58:12;11.00;;;9.02;;
21601;SDS011;10963;50.934;4.668;2023-06-10T12:00:45;9.85;;;8.85;;
21601;SDS011;10963;50.934;4.668;2023-06-10T12:03:16;9.23;;;8.32;;
21601;SDS011;10963;50.934;4.668;2023-06-10T12:08:23;9.88;;;8.90;;
21601;SDS011;10963;50.934;4.668;2023-06-10T12:10:49;9.18;;;8.10;;
21601;SDS011;10963;50.934;4.668;2023-06-10T12:13:15;11.32;;;8.18;;
21601;SDS011;10963;50.934;4.668;2023-06-10T12:15:43;8.27;;;7.55;;
21601;SDS011;10963;50.934;4.668;2023-06-10T12:18:15;8.90;;;7.97;;
21601;SDS011;10963;50.934;4.668;2023-06-10T12:20:52;10.70;;;7.68;;
21601;SDS011;10963;50.934;4.668;2023-06-10T12:23:18;8.63;;;7.82;;
21601;SDS011;10963;50.934;4.668;2023-06-10T12:25:51;10.20;;;8.40;;
21601;SDS011;10963;50.934;4.668;2023-06-10T12:28:23;10.90;;;8.10;;
21601;SDS011;10963;50.934;4.668;2023-06-10T12:30:49;9.57;;;7.90;;
21601;SDS011;10963;50.934;4.668;2023-06-10T12:33:19;9.60;;;8.10;;
21601;SDS011;10963;50.934;4.668;2023-06-10T12:38:20;8.95;;;7.78;;
21601;SDS011;10963;50.934;4.668;2023-06-10T12:40:47;10.38;;;8.68;;
21601;SDS011;10963;50.934;4.668;2023-06-10T12:43:13;10.80;;;8.32;;
21601;SDS011;10963;50.934;4.668;2023-06-10T12:45:44;8.45;;;7.75;;
21601;SDS011;10963;50.934;4.668;2023-06-10T12:50:53;8.60;;;7.80;;
21601;SDS011;10963;50.934;4.668;2023-06-10T12:53:18;8.93;;;8.02;;
21601;SDS011;10963;50.934;4.668;2023-06-10T12:55:45;9.60;;;8.70;;
21601;SDS011;10963;50.934;4.668;2023-06-10T12:58:14;10.45;;;8.70;;
21601;SDS011;10963;50.934;4.668;2023-06-10T13:00:40;10.57;;;8.73;;
21601;SDS011;10963;50.934;4.668;2023-06-10T13:03:07;10.25;;;8.75;;
21601;SDS011;10963;50.934;4.668;2023-06-10T13:05:34;10.32;;;8.88;;
21601;SDS011;10963;50.934;4.668;2023-06-10T13:08:08;8.90;;;8.00;;
21601;SDS011;10963;50.934;4.668;2023-06-10T13:10:37;10.75;;;8.90;;
21601;SDS011;10963;50.934;4.668;2023-06-10T13:13:02;9.27;;;8.10;;
21601;SDS011;10963;50.934;4.668;2023-06-10T13:15:31;10.65;;;8.77;;
21601;SDS011;10963;50.934;4.668;2023-06-10T13:18:01;10.07;;;9.07;;
21601;SDS011;10963;50.934;4.668;2023-06-10T13:20:28;9.98;;;8.98;;
21601;SDS011;10963;50.934;4.668;2023-06-10T13:22:57;9.23;;;8.32;;
21601;SDS011;10963;50.934;4.668;2023-06-10T13:25:27;9.38;;;8.38;;
21601;SDS011;10963;50.934;4.668;2023-06-10T13:27:53;9.73;;;8.73;;
21601;SDS011;10963;50.934;4.668;2023-06-10T13:30:21;9.65;;;8.65;;
21601;SDS011;10963;50.934;4.668;2023-06-10T13:32:49;10.50;;;8.55;;
21601;SDS011;10963;50.934;4.668;2023-06-10T13:35:14;10.13;;;9.20;;
21601;SDS011;10963;50.934;4.668;2023-06-10T13:37:40;9.80;;;8.93;;
21601;SDS011;10963;50.934;4.668;2023-06-10T13:40:06;10.60;;;8.30;;
21601;SDS011;10963;50.934;4.668;2023-06-10T13:42:32;13.38;;;8.93;;
21601;SDS011;10963;50.934;4.668;2023-06-10T13:45:00;9.88;;;8.98;;
21601;SDS011;10963;50.934;4.668;2023-06-10T13:47:29;9.63;;;8.50;;
21601;SDS011;10963;50.934;4.668;2023-06-10T13:49:57;9.68;;;8.68;;
21601;SDS011;10963;50.934;4.668;2023-06-10T13:52:23;11.10;;;9.38;;
21601;SDS011;10963;50.934;4.668;2023-06-10T13:54:48;12.77;;;8.43;;
21601;SDS011;10963;50.934;4.668;2023-06-10T13:57:14;13.85;;;9.43;;
21601;SDS011;10963;50.934;4.668;2023-06-10T13:59:43;9.60;;;8.60;;
21601;SDS011;10963;50.934;4.668;2023-06-10T14:02:11;9.65;;;8.57;;
21601;SDS011;10963;50.934;4.668;2023-06-10T14:04:37;9.52;;;8.60;;
21601;SDS011;10963;50.934;4.668;2023-06-10T14:07:02;9.20;;;8.30;;
21601;SDS011;10963;50.934;4.668;2023-06-10T14:09:28;9.68;;;8.45;;
21601;SDS011;10963;50.934;4.668;2023-06-10T14:11:54;10.20;;;8.43;;
21601;SDS011;10963;50.934;4.668;2023-06-10T14:14:22;10.65;;;8.57;;
21601;SDS011;10963;50.934;4.668;2023-06-10T14:16:48;8.95;;;8.20;;
21601;SDS011;10963;50.934;4.668;2023-06-10T14:19:16;10.70;;;9.40;;
21601;SDS011;10963;50.934;4.668;2023-06-10T14:21:42;9.18;;;8.30;;
21601;SDS011;10963;50.934;4.668;2023-06-10T14:24:07;10.50;;;7.90;;
21601;SDS011;10963;50.934;4.668;2023-06-10T14:26:33;9.20;;;8.35;;
21601;SDS011;10963;50.934;4.668;2023-06-10T14:28:59;9.30;;;8.40;;
21601;SDS011;10963;50.934;4.668;2023-06-10T14:31:25;11.98;;;9.57;;
21601;SDS011;10963;50.934;4.668;2023-06-10T14:33:52;9.40;;;8.50;;
21601;SDS011;10963;50.934;4.668;2023-06-10T14:36:20;10.35;;;8.32;;
21601;SDS011;10963;50.934;4.668;2023-06-10T14:38:46;9.52;;;8.35;;
21601;SDS011;10963;50.934;4.668;2023-06-10T14:41:12;9.88;;;8.70;;
21601;SDS011;10963;50.934;4.668;2023-06-10T14:43:40;9.52;;;8.63;;
21601;SDS011;10963;50.934;4.668;2023-06-10T14:46:08;9.90;;;8.93;;
21601;SDS011;10963;50.934;4.668;2023-06-10T14:48:36;14.07;;;8.93;;
21601;SDS011;10963;50.934;4.668;2023-06-10T14:51:02;9.45;;;8.57;;